Aviation Digital Data Service (ADDS)

Output produced by METARs form (1236 UTC 26 February 2017)
found at http://aviationweather.gov/adds/metars/
 
KACY 261129Z 2612/2712 30012KT P6SM FEW050 
     FM261300 29015G25KT P6SM BKN045 
     FM262100 27010KT P6SM FEW060 
     FM270000 25004KT P6SM SKC